createdAt,value
2023-03-05T00:01:22.926Z,3.35
2023-03-05T00:03:54.413Z,3.28
2023-03-05T00:06:26.342Z,2.42
2023-03-05T00:08:53.842Z,3.25
2023-03-05T00:11:21.754Z,2.72
2023-03-05T00:13:52.156Z,2.63
2023-03-05T00:16:20.275Z,3.05
2023-03-05T00:18:47.786Z,3.65
2023-03-05T00:21:19.429Z,3.60
2023-03-05T00:23:47.011Z,2.60
2023-03-05T00:26:14.295Z,2.47
2023-03-05T00:28:42.674Z,3.50
2023-03-05T00:31:13.257Z,2.78
2023-03-05T00:33:40.811Z,2.97
2023-03-05T00:36:08.419Z,2.72
2023-03-05T00:38:35.942Z,2.40
2023-03-05T00:41:03.512Z,2.58
2023-03-05T00:43:30.988Z,3.10
2023-03-05T00:45:58.163Z,2.70
2023-03-05T00:48:25.845Z,2.75
2023-03-05T00:50:53.590Z,2.45
2023-03-05T00:53:20.844Z,2.85
2023-03-05T00:55:48.398Z,3.25
2023-03-05T00:58:15.559Z,2.10
2023-03-05T01:00:42.877Z,2.13
2023-03-05T01:03:10.306Z,2.03
2023-03-05T01:05:37.858Z,2.40
2023-03-05T01:08:05.466Z,2.83
2023-03-05T01:10:32.671Z,2.65
2023-03-05T01:13:00.930Z,3.25
2023-03-05T01:15:28.297Z,2.88
2023-03-05T01:17:55.471Z,3.00
2023-03-05T01:20:23.417Z,2.72
2023-03-05T01:22:50.572Z,2.53
2023-03-05T01:25:18.631Z,2.78
2023-03-05T01:27:46.241Z,2.63
2023-03-05T01:30:14.727Z,2.30
2023-03-05T01:32:42.432Z,2.92
2023-03-05T01:35:15.926Z,2.30
2023-03-05T01:37:43.372Z,2.00
2023-03-05T01:40:12.526Z,2.53
2023-03-05T01:42:39.843Z,2.00
2023-03-05T01:45:13.010Z,2.00
2023-03-05T01:47:40.930Z,2.03
2023-03-05T01:50:11.774Z,2.70
2023-03-05T01:52:41.727Z,2.70
2023-03-05T01:55:29.654Z,3.10
2023-03-05T02:00:30.913Z,2.85
2023-03-05T02:03:02.279Z,2.50
2023-03-05T02:05:35.971Z,2.30
2023-03-05T02:08:09.172Z,2.65
2023-03-05T02:10:49.172Z,2.80
2023-03-05T02:13:22.821Z,2.85
2023-03-05T02:15:51.261Z,2.78
2023-03-05T02:18:19.820Z,2.97
2023-03-05T02:20:48.691Z,1.98
2023-03-05T02:23:17.332Z,2.20
2023-03-05T02:25:44.647Z,2.40
2023-03-05T02:28:23.146Z,2.83
2023-03-05T02:30:50.350Z,2.30
2023-03-05T02:35:30.539Z,2.00
2023-03-05T02:37:57.848Z,1.85
2023-03-05T02:40:25.155Z,2.50
2023-03-05T02:42:52.537Z,2.22
2023-03-05T02:45:19.949Z,1.70
2023-03-05T02:47:47.011Z,2.42
2023-03-05T02:50:14.392Z,2.00
2023-03-05T02:52:41.671Z,2.38
2023-03-05T02:55:09.242Z,2.03
2023-03-05T02:57:36.367Z,1.90
2023-03-05T03:00:04.654Z,3.40
2023-03-05T03:02:31.959Z,2.05
2023-03-05T03:04:59.103Z,1.85
2023-03-05T03:07:26.270Z,2.50
2023-03-05T03:09:53.508Z,2.20
2023-03-05T03:12:20.656Z,2.17
2023-03-05T03:14:47.767Z,1.83
2023-03-05T03:17:17.904Z,2.05
2023-03-05T03:19:45.908Z,1.90
2023-03-05T03:22:15.219Z,2.00
2023-03-05T03:24:44.750Z,2.00
2023-03-05T03:27:11.961Z,2.53
2023-03-05T03:29:39.096Z,2.20
2023-03-05T03:32:06.637Z,2.20
2023-03-05T03:34:33.802Z,1.92
2023-03-05T03:37:01.760Z,2.58
2023-03-05T03:39:29.351Z,2.40
2023-03-05T03:41:56.830Z,2.55
2023-03-05T03:44:24.413Z,2.60
2023-03-05T03:46:51.970Z,2.75
2023-03-05T03:49:22.696Z,2.33
2023-03-05T03:51:51.019Z,2.00
2023-03-05T03:54:19.166Z,2.92
2023-03-05T03:56:46.782Z,2.42
2023-03-05T03:59:14.316Z,2.95
2023-03-05T04:01:41.680Z,3.10
2023-03-05T04:04:09.099Z,2.83
2023-03-05T04:06:36.223Z,2.38
2023-03-05T04:09:03.867Z,1.70
2023-03-05T04:11:31.241Z,2.30
2023-03-05T04:13:58.287Z,2.65
2023-03-05T04:16:25.675Z,2.72
2023-03-05T04:18:54.905Z,2.70
2023-03-05T04:21:21.939Z,1.88
2023-03-05T04:23:49.268Z,1.70
2023-03-05T04:26:16.351Z,1.70
2023-03-05T04:28:43.450Z,1.77
2023-03-05T04:31:10.561Z,2.45
2023-03-05T04:33:37.674Z,2.28
2023-03-05T04:36:05.184Z,2.40
2023-03-05T04:43:00.198Z,2.63
2023-03-05T04:45:27.502Z,1.75
2023-03-05T04:47:54.678Z,2.13
2023-03-05T04:50:21.890Z,2.13
2023-03-05T04:52:48.990Z,1.90
2023-03-05T04:55:17.256Z,1.67
2023-03-05T04:57:44.544Z,2.28
2023-03-05T05:00:15.653Z,1.70
2023-03-05T05:02:47.739Z,1.95
2023-03-05T05:05:18.554Z,2.25
2023-03-05T05:07:45.992Z,2.38
2023-03-05T05:10:14.644Z,1.95
2023-03-05T05:12:42.666Z,2.30
2023-03-05T05:15:10.289Z,2.20
2023-03-05T05:17:37.399Z,2.20
2023-03-05T05:20:08.881Z,2.10
2023-03-05T05:22:35.984Z,2.35
2023-03-05T05:25:03.889Z,1.90
2023-03-05T05:27:31.279Z,2.20
2023-03-05T05:29:58.421Z,2.30
2023-03-05T05:32:25.958Z,2.17
2023-03-05T05:34:58.059Z,2.22
2023-03-05T05:37:26.445Z,1.63
2023-03-05T05:39:53.682Z,1.95
2023-03-05T05:42:23.578Z,2.33
2023-03-05T05:44:51.088Z,2.00
2023-03-05T05:47:18.610Z,1.70
2023-03-05T05:49:45.741Z,1.73
2023-03-05T05:52:13.621Z,1.83
2023-03-05T05:54:40.786Z,2.13
2023-03-05T05:57:07.973Z,1.60
2023-03-05T05:59:35.306Z,1.80
2023-03-05T06:02:02.406Z,1.42
2023-03-05T06:04:29.590Z,2.03
2023-03-05T06:06:56.768Z,1.75
2023-03-05T06:09:23.687Z,2.00
2023-03-05T06:11:50.681Z,3.03
2023-03-05T06:14:17.953Z,1.73
2023-03-05T06:16:45.015Z,1.80
2023-03-05T06:19:13.842Z,1.52
2023-03-05T06:21:41.546Z,1.83
2023-03-05T06:27:12.654Z,1.60
2023-03-05T06:29:39.624Z,1.83
2023-03-05T06:32:06.913Z,1.90
2023-03-05T06:34:33.905Z,1.52
2023-03-05T06:37:00.860Z,1.60
2023-03-05T06:39:27.946Z,1.65
2023-03-05T06:41:54.932Z,2.00
2023-03-05T06:44:22.084Z,2.45
2023-03-05T06:46:49.008Z,1.85
2023-03-05T06:49:15.999Z,1.70
2023-03-05T06:51:42.918Z,2.65
2023-03-05T06:54:12.844Z,2.38
2023-03-05T06:56:43.530Z,2.13
2023-03-05T06:59:11.571Z,2.13
2023-03-05T07:01:38.593Z,2.13
2023-03-05T07:04:06.912Z,2.38
2023-03-05T07:06:35.936Z,3.13
2023-03-05T07:09:04.678Z,2.20
2023-03-05T07:11:32.061Z,2.30
2023-03-05T07:13:59.197Z,2.08
2023-03-05T07:16:28.552Z,2.40
2023-03-05T07:18:57.986Z,3.15
2023-03-05T07:23:56.881Z,2.38
2023-03-05T07:26:24.469Z,2.70
2023-03-05T07:28:51.628Z,2.35
2023-03-05T07:31:21.686Z,2.70
2023-03-05T07:33:50.224Z,2.70
2023-03-05T07:36:18.047Z,3.13
2023-03-05T07:38:45.899Z,4.05
2023-03-05T07:52:29.735Z,3.17
2023-03-05T07:54:56.844Z,5.43
2023-03-05T07:59:55.392Z,5.88
2023-03-05T08:02:23.051Z,6.57
2023-03-05T08:04:50.072Z,6.57
2023-03-05T08:07:17.138Z,7.63
2023-03-05T08:09:44.468Z,9.10
2023-03-05T08:12:11.528Z,9.52
2023-03-05T08:14:38.551Z,7.50
2023-03-05T08:17:06.381Z,5.95
2023-03-05T08:19:33.608Z,5.68
2023-03-05T08:22:02.024Z,5.65
2023-03-05T08:26:58.114Z,3.92
2023-03-05T08:32:40.394Z,3.40
2023-03-05T09:04:35.349Z,2.42
2023-03-05T09:31:32.914Z,6.90
2023-03-05T09:34:00.268Z,6.28
2023-03-05T09:36:29.625Z,6.30
2023-03-05T09:38:57.109Z,6.70
2023-03-05T09:41:34.385Z,6.97
2023-03-05T09:44:28.858Z,6.72
2023-03-05T09:47:07.407Z,8.23
2023-03-05T09:49:59.024Z,6.13
2023-03-05T09:52:57.446Z,6.63
2023-03-05T09:55:49.608Z,6.97
2023-03-05T09:58:27.542Z,6.38
2023-03-05T10:01:11.436Z,7.00
2023-03-05T10:03:53.615Z,6.32
2023-03-05T10:06:23.819Z,6.55
2023-03-05T10:09:24.676Z,6.63
2023-03-05T10:11:56.745Z,6.45
2023-03-05T10:14:30.270Z,6.38
2023-03-05T10:17:12.770Z,6.85
2023-03-05T10:19:58.413Z,7.13
2023-03-05T10:22:29.951Z,8.07
2023-03-05T10:24:59.992Z,7.53
2023-03-05T10:27:33.641Z,6.90
2023-03-05T10:30:17.625Z,7.88
2023-03-05T10:33:23.454Z,8.38
2023-03-05T10:36:21.300Z,7.82
2023-03-05T10:39:04.536Z,7.22
2023-03-05T10:42:02.580Z,8.38
2023-03-05T10:44:44.711Z,8.23
2023-03-05T10:47:24.523Z,8.35
2023-03-05T10:49:54.336Z,7.78
2023-03-05T10:52:38.547Z,8.48
2023-03-05T10:55:17.710Z,7.78
2023-03-05T10:57:45.046Z,7.55
2023-03-05T11:00:23.687Z,7.40
2023-03-05T11:03:11.007Z,7.78
2023-03-05T11:06:03.651Z,8.32
2023-03-05T11:08:33.751Z,7.15
2023-03-05T11:11:11.136Z,8.00
2023-03-05T11:13:58.612Z,8.32
2023-03-05T11:16:31.576Z,7.20
2023-03-05T11:19:32.905Z,8.48
2023-03-05T11:22:10.967Z,7.30
2023-03-05T11:24:38.353Z,6.30
2023-03-05T11:27:33.462Z,7.10
2023-03-05T11:30:00.722Z,7.78
2023-03-05T11:32:29.493Z,7.43
2023-03-05T11:34:58.342Z,8.07
2023-03-05T11:37:31.096Z,8.13
2023-03-05T11:40:17.181Z,8.95
2023-03-05T11:42:45.038Z,8.00
2023-03-05T11:45:18.336Z,8.20
2023-03-05T11:47:54.929Z,6.72
2023-03-05T11:50:26.116Z,7.45
2023-03-05T11:53:02.075Z,7.90
2023-03-05T11:55:42.536Z,8.82
2023-03-05T11:58:32.764Z,8.55
2023-03-05T12:01:01.625Z,7.70
2023-03-05T12:03:34.864Z,6.93
2023-03-05T12:06:23.279Z,7.18
2023-03-05T12:08:55.192Z,7.78
2023-03-05T12:11:33.203Z,7.63
2023-03-05T12:14:19.341Z,8.73
2023-03-05T12:16:52.393Z,7.43
2023-03-05T12:19:41.262Z,7.78
2023-03-05T12:22:19.066Z,7.80
2023-03-05T12:24:46.519Z,9.15
2023-03-05T12:27:16.038Z,8.00
2023-03-05T12:29:51.944Z,7.95
2023-03-05T12:32:25.745Z,8.27
2023-03-05T12:35:23.492Z,9.48
2023-03-05T12:37:50.762Z,9.15
2023-03-05T12:40:25.521Z,9.38
2023-03-05T12:43:23.139Z,8.70
2023-03-05T12:45:52.729Z,9.23
2023-03-05T12:48:19.748Z,9.85
2023-03-05T12:50:51.593Z,10.77
2023-03-05T12:53:21.090Z,8.88
2023-03-05T12:56:02.031Z,9.95
2023-03-05T12:58:42.115Z,9.88
2023-03-05T13:01:12.261Z,10.02
2023-03-05T13:04:10.762Z,10.00
2023-03-05T13:06:39.253Z,9.10
2023-03-05T13:09:31.768Z,9.23
2023-03-05T13:11:59.682Z,10.77
2023-03-05T13:14:36.847Z,11.50
2023-03-05T13:17:41.207Z,10.05
2023-03-05T13:20:56.416Z,9.18
2023-03-05T13:23:26.409Z,8.00
2023-03-05T13:26:08.695Z,10.23
2023-03-05T13:28:37.469Z,9.80
2023-03-05T13:31:16.203Z,9.90
2023-03-05T13:33:53.342Z,10.02
2023-03-05T13:36:22.060Z,9.50
2023-03-05T13:38:49.713Z,9.93
2023-03-05T13:41:21.538Z,10.05
2023-03-05T13:43:50.471Z,9.30
2023-03-05T13:46:28.859Z,10.13
2023-03-05T13:48:56.646Z,8.65
2023-03-05T13:51:24.282Z,8.63
2023-03-05T13:53:51.992Z,10.00
2023-03-05T13:56:20.671Z,9.02
2023-03-05T13:58:55.743Z,11.57
2023-03-05T14:01:56.055Z,10.70
2023-03-05T14:04:29.166Z,9.45
2023-03-05T14:06:58.870Z,10.15
2023-03-05T14:09:28.972Z,10.25
2023-03-05T14:12:04.747Z,9.98
2023-03-05T14:14:36.460Z,9.50
2023-03-05T14:17:22.573Z,9.50
2023-03-05T14:19:50.137Z,10.32
2023-03-05T14:22:48.129Z,9.35
2023-03-05T14:25:39.985Z,9.65
2023-03-05T14:28:17.230Z,10.10
2023-03-05T14:30:54.207Z,10.10
2023-03-05T14:33:27.245Z,8.77
2023-03-05T14:35:54.941Z,9.13
2023-03-05T14:38:29.003Z,9.90
2023-03-05T14:40:56.397Z,8.52
2023-03-05T14:43:23.572Z,9.57
2023-03-05T14:45:50.609Z,9.90
2023-03-05T14:48:21.315Z,10.52
2023-03-05T14:50:56.445Z,10.27
2023-03-05T14:53:30.843Z,9.43
2023-03-05T14:55:57.998Z,10.05
2023-03-05T14:58:29.518Z,11.32
2023-03-05T15:00:57.058Z,11.55
2023-03-05T15:03:25.371Z,11.45
2023-03-05T15:05:58.481Z,11.90
2023-03-05T15:08:32.044Z,12.52
2023-03-05T15:11:00.804Z,11.63
2023-03-05T15:13:27.960Z,11.63
2023-03-05T15:15:55.493Z,11.95
2023-03-05T15:18:23.817Z,12.27
2023-03-05T15:20:53.048Z,12.85
2023-03-05T15:23:20.245Z,11.40
2023-03-05T15:25:47.576Z,11.88
2023-03-05T15:28:14.686Z,11.45
2023-03-05T15:30:44.789Z,12.40
2023-03-05T15:33:15.052Z,11.50
2023-03-05T15:35:42.432Z,11.68
2023-03-05T15:38:09.504Z,12.48
2023-03-05T15:40:36.542Z,12.95
2023-03-05T15:43:04.250Z,12.52
2023-03-05T15:45:32.604Z,13.23
2023-03-05T15:47:59.812Z,13.13
2023-03-05T15:50:27.006Z,14.07
2023-03-05T15:52:54.124Z,14.40
2023-03-05T15:55:21.892Z,13.50
2023-03-05T15:57:51.608Z,12.95
2023-03-05T16:00:26.539Z,12.50
2023-03-05T16:02:54.109Z,14.10
2023-03-05T16:05:21.464Z,12.82
2023-03-05T16:07:51.810Z,13.35
2023-03-05T16:10:22.473Z,13.68
2023-03-05T16:12:53.186Z,13.73
2023-03-05T16:15:22.299Z,13.85
2023-03-05T16:20:20.340Z,15.25
2023-03-05T16:22:47.687Z,14.90
2023-03-05T16:25:14.959Z,14.45
2023-03-05T16:27:41.949Z,15.00
2023-03-05T16:30:10.695Z,13.60
2023-03-05T16:32:38.841Z,15.25
2023-03-05T16:35:06.305Z,14.00
2023-03-05T16:37:33.467Z,15.43
2023-03-05T16:40:00.640Z,14.88
2023-03-05T16:42:27.698Z,14.60
2023-03-05T16:44:54.907Z,15.38
2023-03-05T16:47:21.886Z,16.38
2023-03-05T16:49:48.931Z,16.40
2023-03-05T16:52:19.073Z,16.67
2023-03-05T16:54:47.086Z,15.20
2023-03-05T16:57:14.498Z,16.40
2023-03-05T16:59:43.639Z,17.17
2023-03-05T17:04:39.868Z,14.45
2023-03-05T17:07:07.493Z,16.63
2023-03-05T17:09:34.636Z,16.00
2023-03-05T17:12:01.653Z,15.65
2023-03-05T17:14:28.700Z,15.95
2023-03-05T17:16:55.763Z,15.85
2023-03-05T17:19:22.787Z,16.98
2023-03-05T17:21:52.158Z,15.90
2023-03-05T17:24:22.323Z,14.40
2023-03-05T17:26:50.252Z,15.90
2023-03-05T17:29:19.015Z,16.17
2023-03-05T17:31:46.899Z,13.88
2023-03-05T17:34:14.696Z,15.80
2023-03-05T17:36:41.902Z,14.25
2023-03-05T17:39:09.003Z,16.15
2023-03-05T17:41:36.162Z,16.65
2023-03-05T17:44:03.647Z,14.65
2023-03-05T17:46:31.109Z,15.70
2023-03-05T17:48:58.308Z,15.30
2023-03-05T17:51:25.391Z,15.20
2023-03-05T17:53:52.380Z,14.38
2023-03-05T17:56:22.429Z,16.17
2023-03-05T17:58:50.059Z,15.48
2023-03-05T18:01:26.848Z,15.52
2023-03-05T18:03:54.589Z,15.27
2023-03-05T18:06:21.788Z,14.10
2023-03-05T18:08:48.780Z,16.20
2023-03-05T18:11:16.905Z,16.17
2023-03-05T18:13:44.321Z,16.80
2023-03-05T18:16:14.267Z,14.57
2023-03-05T18:18:42.146Z,14.57
2023-03-05T18:21:09.442Z,15.55
2023-03-05T18:23:37.514Z,15.25
2023-03-05T18:26:04.974Z,15.00
2023-03-05T18:28:32.231Z,14.35
2023-03-05T18:30:59.545Z,14.50
2023-03-05T18:33:26.718Z,14.70
2023-03-05T18:35:54.205Z,15.35
2023-03-05T18:38:23.036Z,15.48
2023-03-05T18:40:51.560Z,16.05
2023-03-05T18:43:20.792Z,15.32
2023-03-05T18:48:15.887Z,14.23
2023-03-05T18:50:43.379Z,16.48
2023-03-05T18:53:16.642Z,15.00
2023-03-05T18:55:45.069Z,14.93
2023-03-05T18:58:14.256Z,15.75
2023-03-05T19:03:09.127Z,14.32
2023-03-05T19:05:36.375Z,14.73
2023-03-05T19:08:04.575Z,16.52
2023-03-05T19:10:32.491Z,16.85
2023-03-05T19:13:40.633Z,15.77
2023-03-05T19:16:14.806Z,17.00
2023-03-05T19:18:57.255Z,15.52
2023-03-05T19:21:25.059Z,17.27
2023-03-05T19:23:55.110Z,13.85
2023-03-05T19:26:22.142Z,14.75
2023-03-05T19:28:51.895Z,15.13
2023-03-05T19:31:19.124Z,15.23
2023-03-05T19:33:46.220Z,15.45
2023-03-05T19:36:13.651Z,15.18
2023-03-05T19:38:41.051Z,14.93
2023-03-05T19:41:10.568Z,15.38
2023-03-05T19:43:37.987Z,15.48
2023-03-05T19:46:07.439Z,15.20
2023-03-05T19:48:36.887Z,14.93
2023-03-05T19:51:09.859Z,16.23
2023-03-05T19:53:37.204Z,17.30
2023-03-05T19:56:06.210Z,16.58
2023-03-05T19:58:37.118Z,16.05
2023-03-05T20:01:20.158Z,15.95
2023-03-05T20:03:49.880Z,16.95
2023-03-05T20:06:17.602Z,19.05
2023-03-05T20:08:45.108Z,18.38
2023-03-05T20:11:14.111Z,18.42
2023-03-05T20:13:41.837Z,18.92
2023-03-05T20:16:20.953Z,18.98
2023-03-05T20:18:53.020Z,20.20
2023-03-05T20:21:23.268Z,20.50
2023-03-05T20:23:55.272Z,20.17
2023-03-05T20:26:23.552Z,19.80
2023-03-05T20:28:50.754Z,18.05
2023-03-05T20:31:19.899Z,20.40
2023-03-05T20:33:47.258Z,21.15
2023-03-05T20:36:14.800Z,18.55
2023-03-05T20:38:42.387Z,18.05
2023-03-05T20:41:12.136Z,19.75
2023-03-05T20:43:44.621Z,20.27
2023-03-05T20:46:32.666Z,18.00
2023-03-05T20:49:02.061Z,18.75
2023-03-05T20:51:32.345Z,19.27
2023-03-05T20:54:04.864Z,18.70
2023-03-05T20:56:33.925Z,17.13
2023-03-05T20:59:04.507Z,17.08
2023-03-05T21:01:33.419Z,16.77
2023-03-05T21:04:01.487Z,16.10
2023-03-05T21:06:30.581Z,15.38
2023-03-05T21:08:57.974Z,17.98
2023-03-05T21:11:25.311Z,16.73
2023-03-05T21:13:52.423Z,13.95
2023-03-05T21:16:23.125Z,16.05
2023-03-05T21:18:51.279Z,14.88
2023-03-05T21:21:19.254Z,14.45
2023-03-05T21:23:47.863Z,14.98
2023-03-05T21:26:15.729Z,14.88
2023-03-05T22:09:57.573Z,9.48
2023-03-05T22:12:43.266Z,11.23
2023-03-05T22:15:10.859Z,11.05
2023-03-05T22:17:38.043Z,10.55
2023-03-05T22:20:05.783Z,10.27
2023-03-05T22:22:33.372Z,10.40
2023-03-05T22:27:21.597Z,9.70
2023-03-05T22:29:48.707Z,10.07
2023-03-05T22:34:29.510Z,10.00
2023-03-05T22:36:56.675Z,10.65
2023-03-05T22:39:24.032Z,10.65
2023-03-05T22:41:51.290Z,10.10
2023-03-05T22:44:18.417Z,11.52
2023-03-05T22:46:45.708Z,12.77
2023-03-05T22:49:12.822Z,12.43
2023-03-05T22:51:40.040Z,10.20
2023-03-05T22:54:07.178Z,12.85
2023-03-05T22:56:34.373Z,12.18
2023-03-05T22:59:01.761Z,11.88
2023-03-05T23:01:29.010Z,11.82
2023-03-05T23:04:03.843Z,12.02
2023-03-05T23:06:37.410Z,12.63
2023-03-05T23:09:04.629Z,13.13
2023-03-05T23:11:31.797Z,12.55
2023-03-05T23:13:59.086Z,12.55
2023-03-05T23:16:26.301Z,13.50
2023-03-05T23:18:54.538Z,13.82
2023-03-05T23:21:21.739Z,13.02
2023-03-05T23:23:48.914Z,14.55
2023-03-05T23:26:15.975Z,13.70
2023-03-05T23:28:43.205Z,14.27
2023-03-05T23:31:10.514Z,13.20
2023-03-05T23:33:38.274Z,12.73
2023-03-05T23:36:05.792Z,13.65
2023-03-05T23:38:33.389Z,13.90
2023-03-05T23:41:01.467Z,13.13
2023-03-05T23:43:29.253Z,13.32
2023-03-05T23:45:57.102Z,13.20
2023-03-05T23:48:26.421Z,13.35
2023-03-05T23:50:54.174Z,12.98
2023-03-05T23:53:22.899Z,13.23
2023-03-05T23:55:50.414Z,13.18
2023-03-05T23:58:19.437Z,13.52
